createdAt,value
2022-11-25T00:00:02.668Z,98592.41
2022-11-25T00:02:58.339Z,98593.56
2022-11-25T00:05:45.288Z,98604.69
2022-11-25T00:08:32.123Z,98592.44
2022-11-25T00:11:19.055Z,98607.03
2022-11-25T00:14:06.989Z,98590.59
2022-11-25T00:16:53.924Z,98605.84
2022-11-25T00:19:40.858Z,98606.22
2022-11-25T00:22:27.940Z,98598.59
2022-11-25T00:25:14.892Z,98603.78
2022-11-25T00:28:01.854Z,98598.44
2022-11-25T00:30:48.642Z,98600.00
2022-11-25T00:33:36.579Z,98609.16
2022-11-25T00:36:26.425Z,98598.38
2022-11-25T00:39:16.317Z,98610.41
2022-11-25T00:42:21.701Z,98604.56
2022-11-25T00:45:08.979Z,98602.06
2022-11-25T00:47:55.823Z,98608.88
2022-11-25T00:50:42.666Z,98618.16
2022-11-25T00:53:31.245Z,98612.72
2022-11-25T00:56:18.064Z,98606.63
2022-11-25T00:59:04.915Z,98617.75
2022-11-25T01:01:52.170Z,98621.63
2022-11-25T01:04:39.359Z,98625.16
2022-11-25T01:07:26.630Z,98615.66
2022-11-25T01:10:15.591Z,98618.81
2022-11-25T01:13:02.400Z,98613.41
2022-11-25T01:15:49.200Z,98615.81
2022-11-25T01:18:36.033Z,98620.53
2022-11-25T01:21:25.568Z,98607.19
2022-11-25T01:24:15.102Z,98618.06
2022-11-25T01:27:01.968Z,98618.16
2022-11-25T01:29:48.947Z,98617.13
2022-11-25T01:32:35.805Z,98610.31
2022-11-25T01:35:22.615Z,98610.72
2022-11-25T01:38:09.419Z,98604.31
2022-11-25T01:40:56.353Z,98603.38
2022-11-25T01:43:43.268Z,98599.63
2022-11-25T01:46:41.476Z,98599.53
2022-11-25T01:49:34.374Z,98595.59
2022-11-25T01:52:28.286Z,98603.16
2022-11-25T01:55:37.717Z,98612.59
2022-11-25T01:58:30.419Z,98601.56
2022-11-25T02:01:18.038Z,98601.13
2022-11-25T02:04:07.521Z,98603.25
2022-11-25T02:07:00.688Z,98614.03
2022-11-25T02:09:48.489Z,98612.47
2022-11-25T02:12:36.893Z,98617.34
2022-11-25T02:15:23.738Z,98621.50
2022-11-25T02:18:10.542Z,98605.63
2022-11-25T02:20:57.483Z,98608.16
2022-11-25T02:23:56.556Z,98609.16
2022-11-25T02:26:44.508Z,98613.03
2022-11-25T02:29:32.940Z,98614.28
2022-11-25T02:32:23.571Z,98599.25
2022-11-25T02:35:26.803Z,98608.25
2022-11-25T02:38:29.762Z,98601.09
2022-11-25T02:41:32.525Z,98606.34
2022-11-25T02:44:23.100Z,98602.47
2022-11-25T02:47:09.998Z,98602.03
2022-11-25T02:49:58.496Z,98610.81
2022-11-25T02:52:45.356Z,98589.63
2022-11-25T02:55:32.274Z,98608.38
2022-11-25T02:58:19.579Z,98610.22
2022-11-25T03:01:06.858Z,98599.53
2022-11-25T03:03:53.780Z,98610.41
2022-11-25T03:06:40.709Z,98607.03
2022-11-25T03:09:27.595Z,98608.72
2022-11-25T03:12:20.745Z,98616.38
2022-11-25T03:15:12.079Z,98622.00
2022-11-25T03:17:58.977Z,98614.28
2022-11-25T03:20:47.180Z,98615.72
2022-11-25T03:23:34.080Z,98601.28
2022-11-25T03:26:21.712Z,98619.13
2022-11-25T03:29:08.583Z,98602.81
2022-11-25T03:31:55.475Z,98606.28
2022-11-25T03:34:22.722Z,98618.09
2022-11-25T03:36:49.819Z,98618.19
2022-11-25T03:39:16.871Z,98624.56
2022-11-25T03:41:43.728Z,98619.47
2022-11-25T03:44:11.943Z,98610.41
2022-11-25T03:46:38.550Z,98611.19
2022-11-25T03:49:06.863Z,98627.03
2022-11-25T03:51:34.174Z,98624.66
2022-11-25T03:54:00.754Z,98622.53
2022-11-25T03:56:28.900Z,98629.25
2022-11-25T03:58:56.393Z,98616.56
2022-11-25T04:01:23.067Z,98618.91
2022-11-25T04:03:50.627Z,98600.66
2022-11-25T04:06:20.031Z,98619.25
2022-11-25T04:08:47.846Z,98605.81
2022-11-25T04:11:14.964Z,98613.25
2022-11-25T04:13:44.471Z,98608.59
2022-11-25T04:16:23.587Z,98614.44
2022-11-25T04:18:51.221Z,98607.75
2022-11-25T04:21:18.247Z,98616.63
2022-11-25T04:23:44.952Z,98609.69
2022-11-25T04:26:13.575Z,98606.66
2022-11-25T04:28:40.980Z,98608.72
2022-11-25T04:31:11.036Z,98610.47
2022-11-25T04:33:48.360Z,98599.25
2022-11-25T04:36:20.559Z,98600.91
2022-11-25T04:38:50.410Z,98596.75
2022-11-25T04:41:20.984Z,98607.97
2022-11-25T04:43:48.490Z,98597.34
2022-11-25T04:46:22.642Z,98616.59
2022-11-25T04:48:51.345Z,98612.75
2022-11-25T04:51:19.174Z,98615.72
2022-11-25T04:53:48.803Z,98611.25
2022-11-25T04:56:18.322Z,98613.53
2022-11-25T04:59:04.907Z,98610.34
2022-11-25T05:01:32.110Z,98611.56
2022-11-25T05:04:11.652Z,98598.66
2022-11-25T05:06:38.701Z,98597.03
2022-11-25T05:09:13.121Z,98590.47
2022-11-25T05:11:41.095Z,98597.66
2022-11-25T05:14:07.688Z,98613.44
2022-11-25T05:16:34.489Z,98611.97
2022-11-25T05:19:01.513Z,98617.41
2022-11-25T05:21:28.272Z,98615.81
2022-11-25T05:23:56.156Z,98612.19
2022-11-25T05:26:24.206Z,98607.59
2022-11-25T05:28:53.315Z,98605.09
2022-11-25T05:31:20.141Z,98602.91
2022-11-25T05:33:48.348Z,98595.41
2022-11-25T05:36:16.021Z,98605.88
2022-11-25T05:38:45.619Z,98614.88
2022-11-25T05:41:16.241Z,98589.94
2022-11-25T05:43:44.775Z,98596.63
2022-11-25T05:46:12.358Z,98611.63
2022-11-25T05:48:45.706Z,98616.41
2022-11-25T05:51:12.796Z,98622.03
2022-11-25T05:53:40.396Z,98616.72
2022-11-25T05:56:07.672Z,98615.56
2022-11-25T05:58:56.940Z,98624.63
2022-11-25T06:01:29.627Z,98622.38
2022-11-25T06:03:59.739Z,98614.59
2022-11-25T06:06:26.326Z,98617.22
2022-11-25T06:08:53.233Z,98597.13
2022-11-25T06:11:21.545Z,98612.69
2022-11-25T06:13:48.519Z,98603.28
2022-11-25T06:16:18.551Z,98609.84
2022-11-25T06:18:49.910Z,98613.69
2022-11-25T06:21:17.831Z,98616.16
2022-11-25T06:23:45.922Z,98600.72
2022-11-25T06:26:17.447Z,98625.50
2022-11-25T06:28:45.215Z,98632.31
2022-11-25T06:31:16.159Z,98631.50
2022-11-25T06:33:53.804Z,98629.13
2022-11-25T06:36:21.821Z,98630.78
2022-11-25T06:38:51.334Z,98644.13
2022-11-25T06:41:18.365Z,98644.81
2022-11-25T06:43:45.201Z,98643.22
2022-11-25T06:46:17.420Z,98634.41
2022-11-25T06:48:47.895Z,98636.81
2022-11-25T06:51:15.759Z,98647.16
2022-11-25T06:53:42.364Z,98648.78
2022-11-25T06:56:12.043Z,98650.91
2022-11-25T06:58:39.716Z,98658.41
2022-11-25T07:01:27.852Z,98650.84
2022-11-25T07:03:59.662Z,98648.16
2022-11-25T07:06:26.231Z,98654.41
2022-11-25T07:08:53.113Z,98662.41
2022-11-25T07:11:28.684Z,98668.13
2022-11-25T07:13:57.682Z,98661.41
2022-11-25T07:16:25.105Z,98665.44
2022-11-25T07:18:52.116Z,98674.16
2022-11-25T07:21:22.896Z,98670.66
2022-11-25T07:23:50.544Z,98672.66
2022-11-25T07:26:23.235Z,98680.41
2022-11-25T07:28:51.406Z,98684.53
2022-11-25T07:31:31.642Z,98690.81
2022-11-25T07:34:09.591Z,98683.91
2022-11-25T07:36:36.812Z,98682.34
2022-11-25T07:39:07.143Z,98695.09
2022-11-25T07:41:34.108Z,98689.19
2022-11-25T07:44:03.140Z,98703.16
2022-11-25T07:46:35.050Z,98691.66
2022-11-25T07:49:04.924Z,98713.44
2022-11-25T07:51:33.134Z,98713.44
2022-11-25T07:54:01.429Z,98706.84
2022-11-25T07:56:29.688Z,98728.28
2022-11-25T07:58:57.669Z,98718.88
2022-11-25T08:01:25.250Z,98725.56
2022-11-25T08:03:52.447Z,98728.81
2022-11-25T08:06:25.073Z,98727.69
2022-11-25T08:08:54.700Z,98751.84
2022-11-25T08:11:24.923Z,98741.09
2022-11-25T08:13:52.353Z,98732.47
2022-11-25T08:16:21.215Z,98713.78
2022-11-25T08:18:48.361Z,98723.69
2022-11-25T08:21:16.026Z,98752.81
2022-11-25T08:23:44.073Z,98732.38
2022-11-25T08:26:12.903Z,98735.13
2022-11-25T08:28:41.514Z,98720.50
2022-11-25T08:31:12.162Z,98726.06
2022-11-25T08:33:39.704Z,98726.59
2022-11-25T08:36:07.068Z,98726.44
2022-11-25T08:38:33.915Z,98712.31
2022-11-25T08:41:00.797Z,98720.38
2022-11-25T08:43:29.555Z,98741.22
2022-11-25T08:45:56.771Z,98739.56
2022-11-25T08:48:23.314Z,98735.03
2022-11-25T08:50:54.555Z,98746.44
2022-11-25T08:53:22.151Z,98747.22
2022-11-25T08:55:49.410Z,98747.19
2022-11-25T08:58:16.068Z,98752.47
2022-11-25T09:00:44.748Z,98749.78
2022-11-25T09:03:11.570Z,98730.41
2022-11-25T09:05:43.087Z,98752.72
2022-11-25T09:08:11.052Z,98730.44
2022-11-25T09:10:39.454Z,98751.63
2022-11-25T09:13:06.376Z,98765.41
2022-11-25T09:15:33.451Z,98776.59
2022-11-25T09:18:02.921Z,98774.31
2022-11-25T09:20:29.973Z,98801.00
2022-11-25T09:22:59.091Z,98811.78
2022-11-25T09:25:25.981Z,98796.81
2022-11-25T09:27:52.462Z,98791.59
2022-11-25T09:30:19.000Z,98784.25
2022-11-25T09:32:48.854Z,98797.22
2022-11-25T09:35:16.032Z,98783.22
2022-11-25T09:37:42.497Z,98780.91
2022-11-25T09:40:21.009Z,98764.75
2022-11-25T09:43:31.147Z,98774.53
2022-11-25T09:46:38.841Z,98769.16
2022-11-25T09:49:27.484Z,98789.50
2022-11-25T09:52:05.868Z,98800.22
2022-11-25T09:54:37.877Z,98811.28
2022-11-25T09:57:41.457Z,98800.84
2022-11-25T10:00:13.684Z,98811.38
2022-11-25T10:03:07.754Z,98806.75
2022-11-25T10:05:59.981Z,98807.88
2022-11-25T10:08:29.968Z,98799.31
2022-11-25T10:11:07.585Z,98793.41
2022-11-25T10:13:52.568Z,98781.13
2022-11-25T10:16:37.925Z,98784.28
2022-11-25T10:19:23.066Z,98769.09
2022-11-25T10:21:50.456Z,98746.47
2022-11-25T10:24:18.525Z,98753.63
2022-11-25T10:26:48.958Z,98765.50
2022-11-25T10:29:29.142Z,98766.44
2022-11-25T10:32:19.836Z,98765.88
2022-11-25T10:34:53.969Z,98749.09
2022-11-25T10:37:29.366Z,98761.91
2022-11-25T10:39:56.075Z,98765.19
2022-11-25T10:42:28.618Z,98771.31
2022-11-25T10:44:55.459Z,98765.91
2022-11-25T10:47:52.682Z,98769.44
2022-11-25T10:50:58.019Z,98766.94
2022-11-25T10:53:26.963Z,98765.44
2022-11-25T10:56:01.106Z,98749.03
2022-11-25T10:58:29.477Z,98783.13
2022-11-25T11:01:18.027Z,98781.38
2022-11-25T11:04:05.915Z,98770.28
2022-11-25T11:06:37.899Z,98777.63
2022-11-25T11:09:05.047Z,98767.41
2022-11-25T11:11:32.121Z,98779.34
2022-11-25T11:14:10.752Z,98785.41
2022-11-25T11:16:40.347Z,98781.94
2022-11-25T11:19:21.004Z,98768.84
2022-11-25T11:21:52.285Z,98750.22
2022-11-25T11:24:38.219Z,98759.09
2022-11-25T11:27:25.783Z,98759.59
2022-11-25T11:30:15.213Z,98767.44
2022-11-25T11:32:45.233Z,98769.22
2022-11-25T11:35:39.001Z,98777.41
2022-11-25T11:38:32.556Z,98762.25
2022-11-25T11:41:14.552Z,98748.72
2022-11-25T11:43:56.438Z,98756.56
2022-11-25T11:46:49.840Z,98772.22
2022-11-25T11:49:30.674Z,98787.66
2022-11-25T11:52:09.462Z,98777.09
2022-11-25T11:55:02.407Z,98765.84
2022-11-25T11:58:06.356Z,98773.50
2022-11-25T12:00:42.805Z,98767.34
2022-11-25T12:03:21.937Z,98769.56
2022-11-25T12:05:54.101Z,98769.44
2022-11-25T12:08:52.667Z,98766.47
2022-11-25T12:11:25.377Z,98762.38
2022-11-25T12:14:01.136Z,98753.91
2022-11-25T12:16:44.535Z,98760.97
2022-11-25T12:19:35.430Z,98739.22
2022-11-25T12:22:17.551Z,98753.31
2022-11-25T12:25:10.633Z,98761.28
2022-11-25T12:27:44.876Z,98760.22
2022-11-25T12:30:17.801Z,98762.44
2022-11-25T12:32:50.743Z,98776.34
2022-11-25T12:35:43.095Z,98772.25
2022-11-25T12:38:18.763Z,98766.41
2022-11-25T12:41:03.215Z,98765.66
2022-11-25T12:43:50.687Z,98764.72
2022-11-25T12:46:49.705Z,98759.47
2022-11-25T12:49:25.895Z,98754.59
2022-11-25T12:52:09.055Z,98758.00
2022-11-25T12:54:41.351Z,98774.88
2022-11-25T12:57:35.343Z,98775.34
2022-11-25T13:00:41.582Z,98786.97
2022-11-25T13:03:28.099Z,98785.06
2022-11-25T13:06:06.784Z,98788.81
2022-11-25T13:09:11.031Z,98790.31
2022-11-25T13:11:43.608Z,98789.91
2022-11-25T13:14:26.076Z,98782.19
2022-11-25T13:16:54.803Z,98774.13
2022-11-25T13:19:22.001Z,98791.25
2022-11-25T13:22:00.292Z,98773.50
2022-11-25T13:24:30.396Z,98771.78
2022-11-25T13:26:57.083Z,98780.47
2022-11-25T13:29:26.694Z,98778.13
2022-11-25T13:32:00.830Z,98797.31
2022-11-25T13:34:35.096Z,98784.59
2022-11-25T13:37:22.849Z,98794.66
2022-11-25T13:39:49.360Z,98783.88
2022-11-25T13:42:17.075Z,98795.19
2022-11-25T13:44:51.114Z,98796.88
2022-11-25T13:47:33.136Z,98800.16
2022-11-25T13:50:22.727Z,98791.91
2022-11-25T13:53:03.247Z,98784.19
2022-11-25T13:55:36.376Z,98787.97
2022-11-25T13:58:09.016Z,98798.47
2022-11-25T14:00:35.507Z,98798.25
2022-11-25T14:03:20.657Z,98802.72
2022-11-25T14:06:02.293Z,98803.66
2022-11-25T14:08:38.098Z,98809.41
2022-11-25T14:11:27.695Z,98805.25
2022-11-25T14:14:08.200Z,98812.44
2022-11-25T14:16:52.204Z,98820.28
2022-11-25T14:22:50.852Z,98821.53
2022-11-25T14:25:30.335Z,98828.22
2022-11-25T14:28:21.971Z,98828.03
2022-11-25T14:31:03.857Z,98806.09
2022-11-25T14:33:38.347Z,98828.88
2022-11-25T14:36:14.336Z,98827.59
2022-11-25T14:38:50.275Z,98829.47
2022-11-25T14:41:22.971Z,98841.47
2022-11-25T14:44:04.994Z,98844.22
2022-11-25T14:46:31.679Z,98840.72
2022-11-25T14:49:03.248Z,98836.47
2022-11-25T14:51:37.738Z,98850.47
2022-11-25T14:54:07.958Z,98847.06
2022-11-25T14:56:36.738Z,98858.19
2022-11-25T14:59:03.556Z,98848.75
2022-11-25T15:01:35.453Z,98850.56
2022-11-25T15:04:19.491Z,98853.00
2022-11-25T15:06:55.028Z,98852.56
2022-11-25T15:09:41.871Z,98855.66
2022-11-25T15:12:15.496Z,98851.19
2022-11-25T15:14:48.447Z,98856.28
2022-11-25T15:17:37.327Z,98865.19
2022-11-25T15:20:13.430Z,98868.22
2022-11-25T15:22:46.127Z,98866.00
2022-11-25T15:25:16.024Z,98866.09
2022-11-25T15:27:49.729Z,98872.78
2022-11-25T15:30:19.973Z,98877.44
2022-11-25T15:32:46.933Z,98869.84
2022-11-25T15:35:31.899Z,98877.91
2022-11-25T15:37:58.397Z,98877.75
2022-11-25T15:40:32.957Z,98888.25
2022-11-25T15:43:02.280Z,98886.66
2022-11-25T15:45:46.364Z,98885.06
2022-11-25T15:48:36.514Z,98883.38
2022-11-25T15:51:07.958Z,98902.72
2022-11-25T15:53:37.726Z,98894.66
2022-11-25T15:56:06.726Z,98902.56
2022-11-25T15:58:33.375Z,98908.31
2022-11-25T16:01:19.309Z,98908.13
2022-11-25T16:03:50.126Z,98903.88
2022-11-25T16:06:28.104Z,98913.19
2022-11-25T16:08:56.752Z,98915.22
2022-11-25T16:11:25.392Z,98914.66
2022-11-25T16:13:56.200Z,98918.44
2022-11-25T16:16:29.929Z,98925.47
2022-11-25T16:19:02.383Z,98929.81
2022-11-25T16:21:35.011Z,98934.06
2022-11-25T16:24:23.929Z,98933.66
2022-11-25T16:27:00.744Z,98926.97
2022-11-25T16:29:37.667Z,98938.50
2022-11-25T16:32:16.156Z,98939.88
2022-11-25T16:34:43.338Z,98945.19
2022-11-25T16:37:09.913Z,98929.78
2022-11-25T16:39:38.438Z,98943.16
2022-11-25T16:42:06.033Z,98939.66
2022-11-25T16:44:34.660Z,98951.00
2022-11-25T16:47:01.459Z,98955.06
2022-11-25T16:49:30.603Z,98941.25
2022-11-25T16:51:57.375Z,98956.81
2022-11-25T16:54:23.870Z,98959.53
2022-11-25T16:56:52.747Z,98966.91
2022-11-25T16:59:25.708Z,98973.53
2022-11-25T17:01:52.978Z,98954.97
2022-11-25T17:04:19.578Z,98957.25
2022-11-25T17:07:09.612Z,98980.56
2022-11-25T17:09:33.141Z,98993.28
2022-11-25T17:11:59.658Z,98988.97
2022-11-25T17:14:33.487Z,98991.19
2022-11-25T17:17:00.957Z,99000.78
2022-11-25T17:19:28.401Z,98995.84
2022-11-25T17:21:54.951Z,99003.50
2022-11-25T17:24:24.061Z,98997.53
2022-11-25T17:26:57.339Z,99005.53
2022-11-25T17:29:32.569Z,99014.84
2022-11-25T17:31:59.225Z,99006.66
2022-11-25T17:34:25.798Z,99016.97
2022-11-25T17:36:52.438Z,99028.25
2022-11-25T17:39:18.989Z,99029.47
2022-11-25T17:41:49.069Z,99003.91
2022-11-25T17:44:29.322Z,99036.66
2022-11-25T17:46:57.083Z,99036.91
2022-11-25T17:49:24.399Z,99022.00
2022-11-25T17:51:51.275Z,99036.47
2022-11-25T17:54:18.029Z,99042.69
2022-11-25T17:56:51.750Z,99031.94
2022-11-25T17:59:33.147Z,99026.84
2022-11-25T18:01:59.823Z,99018.03
2022-11-25T18:04:45.240Z,99039.75
2022-11-25T18:07:32.085Z,99049.41
2022-11-25T18:10:26.194Z,99054.47
2022-11-25T18:13:13.176Z,99040.78
2022-11-25T18:16:00.051Z,99050.63
2022-11-25T18:18:46.916Z,99056.19
2022-11-25T18:21:33.747Z,99070.47
2022-11-25T18:24:20.608Z,99075.25
2022-11-25T18:27:20.264Z,99068.25
2022-11-25T18:30:20.056Z,99085.81
2022-11-25T18:33:13.503Z,99069.66
2022-11-25T18:36:00.361Z,99074.22
2022-11-25T18:38:48.305Z,99067.91
2022-11-25T18:41:35.288Z,99089.97
2022-11-25T18:44:26.309Z,99107.03
2022-11-25T18:47:13.333Z,99092.00
2022-11-25T18:50:00.159Z,99107.84
2022-11-25T18:52:48.059Z,99113.06
2022-11-25T18:55:35.071Z,99109.13
2022-11-25T18:58:26.896Z,99125.13
2022-11-25T19:01:14.895Z,99110.50
2022-11-25T19:04:01.753Z,99126.06
2022-11-25T19:06:48.550Z,99136.59
2022-11-25T19:09:35.716Z,99139.25
2022-11-25T19:12:22.682Z,99143.91
2022-11-25T19:15:12.721Z,99148.47
2022-11-25T19:18:01.914Z,99145.47
2022-11-25T19:20:48.751Z,99158.22
2022-11-25T19:23:36.050Z,99173.38
2022-11-25T19:26:34.379Z,99169.78
2022-11-25T19:29:35.372Z,99180.34
2022-11-25T19:32:28.037Z,99190.97
2022-11-25T19:35:22.903Z,99180.63
2022-11-25T19:38:19.530Z,99193.88
2022-11-25T19:41:07.902Z,99192.19
2022-11-25T19:43:54.720Z,99213.44
2022-11-25T19:47:13.625Z,99216.38
2022-11-25T19:49:58.074Z,99236.19
2022-11-25T19:52:44.859Z,99203.50
2022-11-25T19:55:32.364Z,99225.72
2022-11-25T19:58:19.213Z,99231.69
2022-11-25T20:01:06.318Z,99224.63
2022-11-25T20:03:54.743Z,99239.97
2022-11-25T20:06:41.747Z,99239.19
2022-11-25T20:09:28.544Z,99252.19
2022-11-25T20:12:24.366Z,99243.34
2022-11-25T20:15:12.152Z,99261.44
2022-11-25T20:18:00.974Z,99261.69
2022-11-25T20:21:15.458Z,99266.88
2022-11-25T20:24:05.343Z,99259.28
2022-11-25T20:26:53.403Z,99269.44
2022-11-25T20:29:40.273Z,99256.84
2022-11-25T20:32:29.976Z,99254.63
2022-11-25T20:35:17.437Z,99276.50
2022-11-25T20:38:04.425Z,99275.81
2022-11-25T20:40:53.778Z,99278.94
2022-11-25T20:43:42.536Z,99281.88
2022-11-25T20:46:29.988Z,99286.47
2022-11-25T20:49:23.290Z,99288.16
2022-11-25T20:52:32.143Z,99297.81
2022-11-25T20:55:23.293Z,99297.72
2022-11-25T20:58:18.589Z,99298.81
2022-11-25T21:01:06.590Z,99308.94
2022-11-25T21:03:53.780Z,99309.09
2022-11-25T21:06:41.334Z,99308.88
2022-11-25T21:09:33.373Z,99319.97
2022-11-25T21:12:20.142Z,99327.22
2022-11-25T21:15:15.475Z,99325.50
2022-11-25T21:18:02.392Z,99328.56
2022-11-25T21:20:51.765Z,99333.19
2022-11-25T21:23:38.711Z,99325.16
2022-11-25T21:26:26.660Z,99332.72
2022-11-25T21:29:17.605Z,99335.88
2022-11-25T21:32:22.982Z,99338.28
2022-11-25T21:35:14.041Z,99338.59
2022-11-25T21:38:07.078Z,99348.56
2022-11-25T21:40:55.790Z,99353.00
2022-11-25T21:43:44.804Z,99364.19
2022-11-25T21:46:31.615Z,99362.81
2022-11-25T21:49:18.445Z,99373.94
2022-11-25T21:52:05.360Z,99370.78
2022-11-25T21:54:52.163Z,99359.59
2022-11-25T21:57:39.375Z,99370.00
2022-11-25T22:00:26.328Z,99375.63
2022-11-25T22:03:16.331Z,99376.41
2022-11-25T22:06:03.183Z,99380.22
2022-11-25T22:08:50.203Z,99377.03
2022-11-25T22:11:40.005Z,99391.47
2022-11-25T22:14:37.775Z,99382.94
2022-11-25T22:17:25.891Z,99380.38
2022-11-25T22:20:40.323Z,99379.75
2022-11-25T22:23:28.091Z,99375.09
2022-11-25T22:26:26.620Z,99382.88
2022-11-25T22:29:20.884Z,99384.25
2022-11-25T22:32:13.910Z,99397.09
2022-11-25T22:35:00.829Z,99387.97
2022-11-25T22:37:53.484Z,99382.78
2022-11-25T22:40:44.367Z,99388.34
2022-11-25T22:43:36.139Z,99405.59
2022-11-25T22:46:23.062Z,99396.31
2022-11-25T22:49:34.295Z,99413.66
2022-11-25T22:52:27.496Z,99403.81
2022-11-25T22:55:14.325Z,99409.56
2022-11-25T22:58:01.689Z,99418.78
2022-11-25T23:00:48.744Z,99412.94
2022-11-25T23:03:35.597Z,99413.03
2022-11-25T23:06:22.459Z,99418.69
2022-11-25T23:09:19.766Z,99430.84
2022-11-25T23:12:06.783Z,99415.69
2022-11-25T23:14:53.615Z,99419.53
2022-11-25T23:17:44.398Z,99419.03
2022-11-25T23:20:34.253Z,99414.69
2022-11-25T23:23:27.028Z,99434.44
2022-11-25T23:26:15.123Z,99428.94
2022-11-25T23:29:01.932Z,99422.81
2022-11-25T23:31:49.307Z,99436.19
2022-11-25T23:34:36.468Z,99433.38
2022-11-25T23:37:23.733Z,99426.38
2022-11-25T23:40:21.454Z,99426.16
2022-11-25T23:43:13.433Z,99429.16
2022-11-25T23:46:00.417Z,99442.44
2022-11-25T23:48:54.816Z,99429.88
2022-11-25T23:51:41.710Z,99449.22
2022-11-25T23:54:40.294Z,99438.94
2022-11-25T23:57:33.071Z,99434.09
